sensor_id;sensor_type;location;lat;lon;timestamp;temperature;humidity
21259;DHT22;10787;53.364;-1.480;2023-08-30T00:00:21;13.60;99.90
21259;DHT22;10787;53.364;-1.480;2023-08-30T00:03:06;13.50;99.90
21259;DHT22;10787;53.364;-1.480;2023-08-30T00:05:50;13.50;99.90
21259;DHT22;10787;53.364;-1.480;2023-08-30T00:08:35;13.50;99.90
21259;DHT22;10787;53.364;-1.480;2023-08-30T00:11:20;13.40;99.90
21259;DHT22;10787;53.364;-1.480;2023-08-30T00:14:05;13.30;99.90
21259;DHT22;10787;53.364;-1.480;2023-08-30T00:16:50;13.30;99.90
21259;DHT22;10787;53.364;-1.480;2023-08-30T00:19:35;13.20;99.90
21259;DHT22;10787;53.364;-1.480;2023-08-30T00:22:21;13.20;99.90
21259;DHT22;10787;53.364;-1.480;2023-08-30T00:25:06;13.20;99.90
21259;DHT22;10787;53.364;-1.480;2023-08-30T00:27:51;13.10;99.90
21259;DHT22;10787;53.364;-1.480;2023-08-30T00:30:35;13.10;99.90
21259;DHT22;10787;53.364;-1.480;2023-08-30T00:33:19;13.00;99.90
21259;DHT22;10787;53.364;-1.480;2023-08-30T00:36:04;13.00;99.90
21259;DHT22;10787;53.364;-1.480;2023-08-30T00:38:48;12.90;99.90
21259;DHT22;10787;53.364;-1.480;2023-08-30T00:41:33;12.90;99.90
21259;DHT22;10787;53.364;-1.480;2023-08-30T00:44:17;12.80;99.90
21259;DHT22;10787;53.364;-1.480;2023-08-30T00:47:02;12.70;99.90
21259;DHT22;10787;53.364;-1.480;2023-08-30T00:49:47;12.80;99.90
21259;DHT22;10787;53.364;-1.480;2023-08-30T00:52:31;12.80;99.90
21259;DHT22;10787;53.364;-1.480;2023-08-30T00:55:15;12.80;99.90
21259;DHT22;10787;53.364;-1.480;2023-08-30T00:58:01;12.90;99.90
21259;DHT22;10787;53.364;-1.480;2023-08-30T01:00:45;12.90;99.90
21259;DHT22;10787;53.364;-1.480;2023-08-30T01:03:31;12.80;99.90
21259;DHT22;10787;53.364;-1.480;2023-08-30T01:06:16;12.80;99.90
21259;DHT22;10787;53.364;-1.480;2023-08-30T01:09:02;12.70;99.90
21259;DHT22;10787;53.364;-1.480;2023-08-30T01:15:01;12.60;99.90
21259;DHT22;10787;53.364;-1.480;2023-08-30T01:17:53;12.50;99.90
21259;DHT22;10787;53.364;-1.480;2023-08-30T01:20:40;12.50;99.90
21259;DHT22;10787;53.364;-1.480;2023-08-30T01:23:48;12.40;99.90
21259;DHT22;10787;53.364;-1.480;2023-08-30T01:27:11;12.40;99.90
21259;DHT22;10787;53.364;-1.480;2023-08-30T01:29:56;12.40;1.00
21259;DHT22;10787;53.364;-1.480;2023-08-30T01:32:41;12.40;99.90
21259;DHT22;10787;53.364;-1.480;2023-08-30T01:35:26;12.30;99.90
21259;DHT22;10787;53.364;-1.480;2023-08-30T01:38:16;12.30;1.00
21259;DHT22;10787;53.364;-1.480;2023-08-30T01:41:02;12.30;99.90
21259;DHT22;10787;53.364;-1.480;2023-08-30T01:43:47;12.30;1.00
21259;DHT22;10787;53.364;-1.480;2023-08-30T01:46:33;12.30;1.00
21259;DHT22;10787;53.364;-1.480;2023-08-30T01:49:18;12.30;1.00
21259;DHT22;10787;53.364;-1.480;2023-08-30T01:52:03;12.30;1.00
21259;DHT22;10787;53.364;-1.480;2023-08-30T01:54:48;12.30;99.90
21259;DHT22;10787;53.364;-1.480;2023-08-30T01:57:32;12.30;99.90
21259;DHT22;10787;53.364;-1.480;2023-08-30T02:00:17;12.20;1.00
21259;DHT22;10787;53.364;-1.480;2023-08-30T02:03:08;12.30;1.00
21259;DHT22;10787;53.364;-1.480;2023-08-30T02:06:13;12.30;1.00
21259;DHT22;10787;53.364;-1.480;2023-08-30T02:09:08;12.40;1.00
21259;DHT22;10787;53.364;-1.480;2023-08-30T02:11:55;12.40;1.00
21259;DHT22;10787;53.364;-1.480;2023-08-30T02:14:46;12.40;99.90
21259;DHT22;10787;53.364;-1.480;2023-08-30T02:17:31;12.30;1.00
21259;DHT22;10787;53.364;-1.480;2023-08-30T02:20:16;12.20;1.00
21259;DHT22;10787;53.364;-1.480;2023-08-30T02:23:01;12.20;1.00
21259;DHT22;10787;53.364;-1.480;2023-08-30T02:25:45;12.10;1.00
21259;DHT22;10787;53.364;-1.480;2023-08-30T02:28:30;12.00;1.00
21259;DHT22;10787;53.364;-1.480;2023-08-30T02:31:14;11.90;1.00
21259;DHT22;10787;53.364;-1.480;2023-08-30T02:33:58;11.80;1.00
21259;DHT22;10787;53.364;-1.480;2023-08-30T02:36:43;11.80;1.00
21259;DHT22;10787;53.364;-1.480;2023-08-30T02:39:27;11.70;1.00
21259;DHT22;10787;53.364;-1.480;2023-08-30T02:42:11;11.60;1.00
21259;DHT22;10787;53.364;-1.480;2023-08-30T02:44:55;11.60;1.00
21259;DHT22;10787;53.364;-1.480;2023-08-30T02:47:39;11.50;1.00
21259;DHT22;10787;53.364;-1.480;2023-08-30T02:50:24;11.50;1.00
21259;DHT22;10787;53.364;-1.480;2023-08-30T02:53:09;11.50;1.00
21259;DHT22;10787;53.364;-1.480;2023-08-30T02:55:56;11.50;1.00
21259;DHT22;10787;53.364;-1.480;2023-08-30T02:58:41;11.40;1.00
21259;DHT22;10787;53.364;-1.480;2023-08-30T03:01:25;11.40;1.00
21259;DHT22;10787;53.364;-1.480;2023-08-30T03:04:09;11.40;1.00
21259;DHT22;10787;53.364;-1.480;2023-08-30T03:06:54;11.40;1.00
21259;DHT22;10787;53.364;-1.480;2023-08-30T03:09:38;11.50;1.00
21259;DHT22;10787;53.364;-1.480;2023-08-30T03:12:23;11.50;1.00
21259;DHT22;10787;53.364;-1.480;2023-08-30T03:15:07;11.60;1.00
21259;DHT22;10787;53.364;-1.480;2023-08-30T03:17:52;11.70;1.00
21259;DHT22;10787;53.364;-1.480;2023-08-30T03:20:36;11.80;1.00
21259;DHT22;10787;53.364;-1.480;2023-08-30T03:23:20;11.90;1.00
21259;DHT22;10787;53.364;-1.480;2023-08-30T03:26:15;12.00;1.00
21259;DHT22;10787;53.364;-1.480;2023-08-30T03:28:59;12.00;1.00
21259;DHT22;10787;53.364;-1.480;2023-08-30T03:31:43;11.90;1.00
21259;DHT22;10787;53.364;-1.480;2023-08-30T03:34:27;11.90;1.00
21259;DHT22;10787;53.364;-1.480;2023-08-30T03:37:16;11.90;1.00
21259;DHT22;10787;53.364;-1.480;2023-08-30T03:40:00;11.80;1.00
21259;DHT22;10787;53.364;-1.480;2023-08-30T03:42:45;11.80;1.00
21259;DHT22;10787;53.364;-1.480;2023-08-30T03:45:29;11.70;1.00
21259;DHT22;10787;53.364;-1.480;2023-08-30T03:48:13;11.60;1.00
21259;DHT22;10787;53.364;-1.480;2023-08-30T03:50:58;11.60;1.00
21259;DHT22;10787;53.364;-1.480;2023-08-30T03:53:42;11.50;1.00
21259;DHT22;10787;53.364;-1.480;2023-08-30T03:56:26;11.40;1.00
21259;DHT22;10787;53.364;-1.480;2023-08-30T03:59:11;11.40;1.00
21259;DHT22;10787;53.364;-1.480;2023-08-30T04:01:55;11.40;1.00
21259;DHT22;10787;53.364;-1.480;2023-08-30T04:04:40;11.30;1.00
21259;DHT22;10787;53.364;-1.480;2023-08-30T04:07:24;11.30;1.00
21259;DHT22;10787;53.364;-1.480;2023-08-30T04:10:08;11.20;1.00
21259;DHT22;10787;53.364;-1.480;2023-08-30T04:12:52;11.20;1.00
21259;DHT22;10787;53.364;-1.480;2023-08-30T04:15:37;11.10;1.00
21259;DHT22;10787;53.364;-1.480;2023-08-30T04:18:22;11.10;1.00
21259;DHT22;10787;53.364;-1.480;2023-08-30T04:21:07;11.20;1.00
21259;DHT22;10787;53.364;-1.480;2023-08-30T04:23:52;11.30;1.00
21259;DHT22;10787;53.364;-1.480;2023-08-30T04:26:37;11.40;1.00
21259;DHT22;10787;53.364;-1.480;2023-08-30T04:29:21;11.40;1.00
21259;DHT22;10787;53.364;-1.480;2023-08-30T04:32:06;11.40;1.00
21259;DHT22;10787;53.364;-1.480;2023-08-30T04:34:50;11.40;1.00
21259;DHT22;10787;53.364;-1.480;2023-08-30T04:37:34;11.40;1.00
21259;DHT22;10787;53.364;-1.480;2023-08-30T04:40:18;11.40;1.00
21259;DHT22;10787;53.364;-1.480;2023-08-30T04:43:03;11.40;1.00
21259;DHT22;10787;53.364;-1.480;2023-08-30T04:45:47;11.30;1.00
21259;DHT22;10787;53.364;-1.480;2023-08-30T04:48:32;11.30;1.00
21259;DHT22;10787;53.364;-1.480;2023-08-30T04:51:17;11.30;1.00
21259;DHT22;10787;53.364;-1.480;2023-08-30T04:54:02;11.30;1.00
21259;DHT22;10787;53.364;-1.480;2023-08-30T04:56:46;11.30;1.00
21259;DHT22;10787;53.364;-1.480;2023-08-30T04:59:31;11.30;1.00
21259;DHT22;10787;53.364;-1.480;2023-08-30T05:02:15;11.40;1.00
21259;DHT22;10787;53.364;-1.480;2023-08-30T05:05:03;11.40;1.00
21259;DHT22;10787;53.364;-1.480;2023-08-30T05:07:50;11.50;1.00
21259;DHT22;10787;53.364;-1.480;2023-08-30T05:10:34;11.50;1.00
21259;DHT22;10787;53.364;-1.480;2023-08-30T05:13:19;11.60;1.00
21259;DHT22;10787;53.364;-1.480;2023-08-30T05:16:03;11.70;1.00
21259;DHT22;10787;53.364;-1.480;2023-08-30T05:18:47;11.80;1.00
21259;DHT22;10787;53.364;-1.480;2023-08-30T05:21:32;11.90;1.00
21259;DHT22;10787;53.364;-1.480;2023-08-30T05:24:17;11.80;1.00
21259;DHT22;10787;53.364;-1.480;2023-08-30T05:27:02;11.80;1.00
21259;DHT22;10787;53.364;-1.480;2023-08-30T05:29:46;11.80;1.00
21259;DHT22;10787;53.364;-1.480;2023-08-30T05:32:30;11.80;1.00
21259;DHT22;10787;53.364;-1.480;2023-08-30T05:35:15;11.90;1.00
21259;DHT22;10787;53.364;-1.480;2023-08-30T05:38:00;12.00;1.00
21259;DHT22;10787;53.364;-1.480;2023-08-30T05:40:44;12.30;1.00
21259;DHT22;10787;53.364;-1.480;2023-08-30T05:43:29;12.70;1.00
21259;DHT22;10787;53.364;-1.480;2023-08-30T05:46:13;12.80;99.90
21259;DHT22;10787;53.364;-1.480;2023-08-30T05:48:59;13.00;99.90
21259;DHT22;10787;53.364;-1.480;2023-08-30T05:51:46;13.20;99.90
21259;DHT22;10787;53.364;-1.480;2023-08-30T05:54:31;13.30;99.90
21259;DHT22;10787;53.364;-1.480;2023-08-30T05:57:17;13.50;99.90
21259;DHT22;10787;53.364;-1.480;2023-08-30T06:00:02;13.50;99.90
21259;DHT22;10787;53.364;-1.480;2023-08-30T06:02:49;13.60;99.90
21259;DHT22;10787;53.364;-1.480;2023-08-30T06:05:35;13.60;99.90
21259;DHT22;10787;53.364;-1.480;2023-08-30T06:08:19;13.50;99.90
21259;DHT22;10787;53.364;-1.480;2023-08-30T06:11:04;13.50;99.90
21259;DHT22;10787;53.364;-1.480;2023-08-30T06:13:48;13.40;99.90
21259;DHT22;10787;53.364;-1.480;2023-08-30T06:16:32;13.30;99.90
21259;DHT22;10787;53.364;-1.480;2023-08-30T06:19:16;13.30;99.90
21259;DHT22;10787;53.364;-1.480;2023-08-30T06:22:00;13.30;99.90
21259;DHT22;10787;53.364;-1.480;2023-08-30T06:24:45;13.30;99.90
21259;DHT22;10787;53.364;-1.480;2023-08-30T06:27:30;13.30;99.90
21259;DHT22;10787;53.364;-1.480;2023-08-30T06:30:14;13.40;99.90
21259;DHT22;10787;53.364;-1.480;2023-08-30T06:32:59;13.30;99.90
21259;DHT22;10787;53.364;-1.480;2023-08-30T06:35:44;13.40;99.90
21259;DHT22;10787;53.364;-1.480;2023-08-30T06:38:28;13.50;99.90
21259;DHT22;10787;53.364;-1.480;2023-08-30T06:41:12;13.50;99.90
21259;DHT22;10787;53.364;-1.480;2023-08-30T06:43:57;13.60;99.90
21259;DHT22;10787;53.364;-1.480;2023-08-30T06:46:42;13.80;99.90
21259;DHT22;10787;53.364;-1.480;2023-08-30T06:49:26;13.90;99.90
21259;DHT22;10787;53.364;-1.480;2023-08-30T06:52:11;14.00;99.90
21259;DHT22;10787;53.364;-1.480;2023-08-30T06:54:55;14.10;99.90
21259;DHT22;10787;53.364;-1.480;2023-08-30T06:57:40;14.10;99.90
21259;DHT22;10787;53.364;-1.480;2023-08-30T07:00:24;14.00;99.90
21259;DHT22;10787;53.364;-1.480;2023-08-30T07:03:08;14.00;99.90
21259;DHT22;10787;53.364;-1.480;2023-08-30T07:05:53;14.00;99.90
21259;DHT22;10787;53.364;-1.480;2023-08-30T07:08:38;14.00;99.90
21259;DHT22;10787;53.364;-1.480;2023-08-30T07:11:22;14.00;99.90
21259;DHT22;10787;53.364;-1.480;2023-08-30T07:14:07;14.00;99.90
21259;DHT22;10787;53.364;-1.480;2023-08-30T07:16:51;14.00;99.90
21259;DHT22;10787;53.364;-1.480;2023-08-30T07:19:36;14.10;99.90
21259;DHT22;10787;53.364;-1.480;2023-08-30T07:22:20;14.30;99.90
21259;DHT22;10787;53.364;-1.480;2023-08-30T07:25:05;14.60;99.90
21259;DHT22;10787;53.364;-1.480;2023-08-30T07:27:49;14.70;99.90
21259;DHT22;10787;53.364;-1.480;2023-08-30T07:30:34;14.70;99.90
21259;DHT22;10787;53.364;-1.480;2023-08-30T07:33:22;14.70;99.90
21259;DHT22;10787;53.364;-1.480;2023-08-30T07:36:06;14.80;99.90
21259;DHT22;10787;53.364;-1.480;2023-08-30T07:38:50;14.90;99.90
21259;DHT22;10787;53.364;-1.480;2023-08-30T07:41:34;14.90;99.90
21259;DHT22;10787;53.364;-1.480;2023-08-30T07:44:19;14.90;99.90
21259;DHT22;10787;53.364;-1.480;2023-08-30T07:47:04;14.90;99.90
21259;DHT22;10787;53.364;-1.480;2023-08-30T07:49:48;14.90;99.90
21259;DHT22;10787;53.364;-1.480;2023-08-30T07:52:32;15.00;99.90
21259;DHT22;10787;53.364;-1.480;2023-08-30T07:55:16;15.20;99.90
21259;DHT22;10787;53.364;-1.480;2023-08-30T07:58:01;15.20;99.90
21259;DHT22;10787;53.364;-1.480;2023-08-30T08:00:51;15.20;99.90
21259;DHT22;10787;53.364;-1.480;2023-08-30T08:03:36;15.00;99.90
21259;DHT22;10787;53.364;-1.480;2023-08-30T08:06:20;15.10;99.90
21259;DHT22;10787;53.364;-1.480;2023-08-30T08:09:05;14.90;99.90
21259;DHT22;10787;53.364;-1.480;2023-08-30T08:11:51;14.80;99.90
21259;DHT22;10787;53.364;-1.480;2023-08-30T08:14:36;14.90;99.90
21259;DHT22;10787;53.364;-1.480;2023-08-30T08:17:23;15.00;99.90
21259;DHT22;10787;53.364;-1.480;2023-08-30T08:20:07;15.10;99.90
21259;DHT22;10787;53.364;-1.480;2023-08-30T08:22:52;15.30;99.90
21259;DHT22;10787;53.364;-1.480;2023-08-30T08:25:36;15.50;99.90
21259;DHT22;10787;53.364;-1.480;2023-08-30T08:28:20;15.50;99.90
21259;DHT22;10787;53.364;-1.480;2023-08-30T08:31:04;15.60;99.90
21259;DHT22;10787;53.364;-1.480;2023-08-30T08:34:10;15.60;99.90
21259;DHT22;10787;53.364;-1.480;2023-08-30T08:36:54;15.50;99.90
21259;DHT22;10787;53.364;-1.480;2023-08-30T08:39:39;15.20;99.90
21259;DHT22;10787;53.364;-1.480;2023-08-30T08:42:23;15.40;99.90
21259;DHT22;10787;53.364;-1.480;2023-08-30T08:45:10;15.30;99.90
21259;DHT22;10787;53.364;-1.480;2023-08-30T08:48:11;15.40;99.90
21259;DHT22;10787;53.364;-1.480;2023-08-30T08:50:57;15.30;99.90
21259;DHT22;10787;53.364;-1.480;2023-08-30T08:53:41;15.30;99.90
21259;DHT22;10787;53.364;-1.480;2023-08-30T08:56:26;15.00;99.90
21259;DHT22;10787;53.364;-1.480;2023-08-30T08:59:12;14.50;99.90
21259;DHT22;10787;53.364;-1.480;2023-08-30T09:01:56;14.20;1.00
21259;DHT22;10787;53.364;-1.480;2023-08-30T09:04:41;13.90;1.00
21259;DHT22;10787;53.364;-1.480;2023-08-30T09:07:42;13.80;99.90
21259;DHT22;10787;53.364;-1.480;2023-08-30T09:10:27;13.70;99.90
21259;DHT22;10787;53.364;-1.480;2023-08-30T09:13:11;13.70;1.00
21259;DHT22;10787;53.364;-1.480;2023-08-30T09:15:55;13.70;1.00
21259;DHT22;10787;53.364;-1.480;2023-08-30T09:18:43;13.70;1.00
21259;DHT22;10787;53.364;-1.480;2023-08-30T09:21:27;13.70;1.00
21259;DHT22;10787;53.364;-1.480;2023-08-30T09:24:36;13.80;1.00
21259;DHT22;10787;53.364;-1.480;2023-08-30T09:27:20;13.80;1.00
21259;DHT22;10787;53.364;-1.480;2023-08-30T09:30:06;13.70;1.00
21259;DHT22;10787;53.364;-1.480;2023-08-30T09:32:52;13.80;1.00
21259;DHT22;10787;53.364;-1.480;2023-08-30T09:35:43;13.80;1.00
21259;DHT22;10787;53.364;-1.480;2023-08-30T09:38:28;13.90;1.00
21259;DHT22;10787;53.364;-1.480;2023-08-30T09:41:13;14.10;1.00
21259;DHT22;10787;53.364;-1.480;2023-08-30T09:47:09;14.40;1.00
21259;DHT22;10787;53.364;-1.480;2023-08-30T09:49:55;14.60;1.00
21259;DHT22;10787;53.364;-1.480;2023-08-30T09:52:40;14.80;1.00
21259;DHT22;10787;53.364;-1.480;2023-08-30T09:55:25;15.10;1.00
21259;DHT22;10787;53.364;-1.480;2023-08-30T09:58:10;15.40;99.90
21259;DHT22;10787;53.364;-1.480;2023-08-30T10:00:54;15.60;53.00
21259;DHT22;10787;53.364;-1.480;2023-08-30T10:03:39;15.80;1.00
21259;DHT22;10787;53.364;-1.480;2023-08-30T10:06:24;15.80;1.00
21259;DHT22;10787;53.364;-1.480;2023-08-30T10:09:10;15.90;1.00
21259;DHT22;10787;53.364;-1.480;2023-08-30T10:11:57;16.10;99.90
21259;DHT22;10787;53.364;-1.480;2023-08-30T10:14:42;16.40;99.90
21259;DHT22;10787;53.364;-1.480;2023-08-30T10:17:28;16.70;99.90
21259;DHT22;10787;53.364;-1.480;2023-08-30T10:20:15;16.90;99.90
21259;DHT22;10787;53.364;-1.480;2023-08-30T10:23:00;17.20;99.90
21259;DHT22;10787;53.364;-1.480;2023-08-30T10:25:46;17.30;99.90
21259;DHT22;10787;53.364;-1.480;2023-08-30T10:28:31;17.10;99.90
21259;DHT22;10787;53.364;-1.480;2023-08-30T10:31:17;16.80;99.90
21259;DHT22;10787;53.364;-1.480;2023-08-30T10:34:01;16.70;99.90
21259;DHT22;10787;53.364;-1.480;2023-08-30T10:36:56;16.70;99.90
21259;DHT22;10787;53.364;-1.480;2023-08-30T10:39:42;16.70;99.90
21259;DHT22;10787;53.364;-1.480;2023-08-30T10:42:26;16.80;99.90
21259;DHT22;10787;53.364;-1.480;2023-08-30T10:45:26;16.80;99.90
21259;DHT22;10787;53.364;-1.480;2023-08-30T10:48:11;16.90;99.90
21259;DHT22;10787;53.364;-1.480;2023-08-30T10:50:58;17.00;99.90
21259;DHT22;10787;53.364;-1.480;2023-08-30T10:53:43;17.10;99.90
21259;DHT22;10787;53.364;-1.480;2023-08-30T10:56:30;17.50;99.90
21259;DHT22;10787;53.364;-1.480;2023-08-30T10:59:18;17.60;99.90
21259;DHT22;10787;53.364;-1.480;2023-08-30T11:02:03;17.50;88.00
21259;DHT22;10787;53.364;-1.480;2023-08-30T11:04:49;17.50;95.80
21259;DHT22;10787;53.364;-1.480;2023-08-30T11:07:34;17.50;80.20
21259;DHT22;10787;53.364;-1.480;2023-08-30T11:10:19;17.60;97.60
21259;DHT22;10787;53.364;-1.480;2023-08-30T11:13:04;17.70;91.10
21259;DHT22;10787;53.364;-1.480;2023-08-30T11:15:52;17.70;90.40
21259;DHT22;10787;53.364;-1.480;2023-08-30T11:18:39;17.80;90.40
21259;DHT22;10787;53.364;-1.480;2023-08-30T11:21:25;17.80;96.30
21259;DHT22;10787;53.364;-1.480;2023-08-30T11:24:10;18.10;99.90
21259;DHT22;10787;53.364;-1.480;2023-08-30T11:26:55;18.30;99.90
21259;DHT22;10787;53.364;-1.480;2023-08-30T11:29:40;18.50;97.80
21259;DHT22;10787;53.364;-1.480;2023-08-30T11:32:24;18.80;99.90
21259;DHT22;10787;53.364;-1.480;2023-08-30T11:35:08;18.90;99.90
21259;DHT22;10787;53.364;-1.480;2023-08-30T11:37:53;18.90;99.90
21259;DHT22;10787;53.364;-1.480;2023-08-30T11:40:38;18.70;92.60
21259;DHT22;10787;53.364;-1.480;2023-08-30T11:43:22;18.50;95.40
21259;DHT22;10787;53.364;-1.480;2023-08-30T11:46:08;18.50;72.70
21259;DHT22;10787;53.364;-1.480;2023-08-30T11:48:53;18.90;84.30
21259;DHT22;10787;53.364;-1.480;2023-08-30T11:51:37;19.60;94.50
21259;DHT22;10787;53.364;-1.480;2023-08-30T11:54:23;20.20;99.80
21259;DHT22;10787;53.364;-1.480;2023-08-30T11:57:21;20.20;93.10
21259;DHT22;10787;53.364;-1.480;2023-08-30T12:00:10;19.80;60.00
21259;DHT22;10787;53.364;-1.480;2023-08-30T12:02:54;19.40;58.00
21259;DHT22;10787;53.364;-1.480;2023-08-30T12:05:50;19.90;83.00
21259;DHT22;10787;53.364;-1.480;2023-08-30T12:08:34;20.90;77.10
21259;DHT22;10787;53.364;-1.480;2023-08-30T12:11:19;21.20;63.60
21259;DHT22;10787;53.364;-1.480;2023-08-30T12:14:04;20.70;27.50
21259;DHT22;10787;53.364;-1.480;2023-08-30T12:16:49;20.40;31.80
21259;DHT22;10787;53.364;-1.480;2023-08-30T12:19:33;20.60;39.90
21259;DHT22;10787;53.364;-1.480;2023-08-30T12:22:18;21.80;76.70
21259;DHT22;10787;53.364;-1.480;2023-08-30T12:25:02;22.00;18.10
21259;DHT22;10787;53.364;-1.480;2023-08-30T12:27:47;21.50;15.50
21259;DHT22;10787;53.364;-1.480;2023-08-30T12:30:31;20.60;1.00
21259;DHT22;10787;53.364;-1.480;2023-08-30T12:33:18;20.20;1.00
21259;DHT22;10787;53.364;-1.480;2023-08-30T12:36:03;20.80;13.10
21259;DHT22;10787;53.364;-1.480;2023-08-30T12:38:48;21.30;41.40
21259;DHT22;10787;53.364;-1.480;2023-08-30T12:41:32;21.30;40.30
21259;DHT22;10787;53.364;-1.480;2023-08-30T12:44:17;21.10;23.00
21259;DHT22;10787;53.364;-1.480;2023-08-30T12:47:01;20.90;12.80
21259;DHT22;10787;53.364;-1.480;2023-08-30T12:49:47;22.30;50.10
21259;DHT22;10787;53.364;-1.480;2023-08-30T12:52:32;23.20;33.40
21259;DHT22;10787;53.364;-1.480;2023-08-30T12:55:16;23.10;9.70
21259;DHT22;10787;53.364;-1.480;2023-08-30T12:58:03;23.10;14.60
21259;DHT22;10787;53.364;-1.480;2023-08-30T13:00:47;24.10;51.00
21259;DHT22;10787;53.364;-1.480;2023-08-30T13:03:32;24.10;19.80
21259;DHT22;10787;53.364;-1.480;2023-08-30T13:06:20;23.10;8.80
21259;DHT22;10787;53.364;-1.480;2023-08-30T13:09:05;22.30;1.00
21259;DHT22;10787;53.364;-1.480;2023-08-30T13:11:49;22.40;1.00
21259;DHT22;10787;53.364;-1.480;2023-08-30T13:14:33;23.50;11.20
21259;DHT22;10787;53.364;-1.480;2023-08-30T13:17:20;23.90;5.40
21259;DHT22;10787;53.364;-1.480;2023-08-30T13:20:05;23.70;7.40
21259;DHT22;10787;53.364;-1.480;2023-08-30T13:22:50;23.70;13.00
21259;DHT22;10787;53.364;-1.480;2023-08-30T13:25:40;23.30;3.00
21259;DHT22;10787;53.364;-1.480;2023-08-30T13:28:25;22.60;1.00
21259;DHT22;10787;53.364;-1.480;2023-08-30T13:31:12;21.70;1.00
21259;DHT22;10787;53.364;-1.480;2023-08-30T13:34:00;21.20;1.00
21259;DHT22;10787;53.364;-1.480;2023-08-30T13:36:51;21.10;1.00
21259;DHT22;10787;53.364;-1.480;2023-08-30T13:39:41;21.20;1.00
21259;DHT22;10787;53.364;-1.480;2023-08-30T13:42:34;22.20;1.00
21259;DHT22;10787;53.364;-1.480;2023-08-30T13:45:20;23.70;1.00
21259;DHT22;10787;53.364;-1.480;2023-08-30T13:48:07;24.70;12.40
21259;DHT22;10787;53.364;-1.480;2023-08-30T13:50:54;24.50;1.00
21259;DHT22;10787;53.364;-1.480;2023-08-30T13:53:39;23.80;1.00
21259;DHT22;10787;53.364;-1.480;2023-08-30T13:56:24;23.40;1.00
21259;DHT22;10787;53.364;-1.480;2023-08-30T13:59:09;22.70;1.00
21259;DHT22;10787;53.364;-1.480;2023-08-30T14:01:53;22.60;1.00
21259;DHT22;10787;53.364;-1.480;2023-08-30T14:04:41;22.70;1.00
21259;DHT22;10787;53.364;-1.480;2023-08-30T14:07:28;23.40;1.00
21259;DHT22;10787;53.364;-1.480;2023-08-30T14:10:12;25.10;1.00
21259;DHT22;10787;53.364;-1.480;2023-08-30T14:13:02;26.10;1.00
21259;DHT22;10787;53.364;-1.480;2023-08-30T14:15:49;25.40;1.00
21259;DHT22;10787;53.364;-1.480;2023-08-30T14:18:36;26.70;1.00
21259;DHT22;10787;53.364;-1.480;2023-08-30T14:21:23;27.60;4.90
21259;DHT22;10787;53.364;-1.480;2023-08-30T14:24:08;28.00;1.00
21259;DHT22;10787;53.364;-1.480;2023-08-30T14:26:53;28.60;1.00
21259;DHT22;10787;53.364;-1.480;2023-08-30T14:29:41;29.50;8.60
21259;DHT22;10787;53.364;-1.480;2023-08-30T14:32:28;29.50;1.00
21259;DHT22;10787;53.364;-1.480;2023-08-30T14:35:12;30.10;1.00
21259;DHT22;10787;53.364;-1.480;2023-08-30T14:38:04;30.10;1.00
21259;DHT22;10787;53.364;-1.480;2023-08-30T14:40:59;29.80;1.00
21259;DHT22;10787;53.364;-1.480;2023-08-30T14:43:51;30.40;1.00
21259;DHT22;10787;53.364;-1.480;2023-08-30T14:46:36;30.70;1.00
21259;DHT22;10787;53.364;-1.480;2023-08-30T14:49:25;30.40;1.00
21259;DHT22;10787;53.364;-1.480;2023-08-30T14:52:12;29.80;1.00
21259;DHT22;10787;53.364;-1.480;2023-08-30T14:54:56;29.10;1.00
21259;DHT22;10787;53.364;-1.480;2023-08-30T14:57:41;29.00;1.00
21259;DHT22;10787;53.364;-1.480;2023-08-30T15:00:25;28.20;1.00
21259;DHT22;10787;53.364;-1.480;2023-08-30T15:03:10;29.10;1.00
21259;DHT22;10787;53.364;-1.480;2023-08-30T15:05:54;29.60;1.00
21259;DHT22;10787;53.364;-1.480;2023-08-30T15:08:42;29.00;1.00
21259;DHT22;10787;53.364;-1.480;2023-08-30T15:11:26;29.10;1.00
21259;DHT22;10787;53.364;-1.480;2023-08-30T15:14:11;29.10;1.00
21259;DHT22;10787;53.364;-1.480;2023-08-30T15:16:55;28.60;1.00
21259;DHT22;10787;53.364;-1.480;2023-08-30T15:19:39;28.30;1.00
21259;DHT22;10787;53.364;-1.480;2023-08-30T15:22:23;28.50;1.00
21259;DHT22;10787;53.364;-1.480;2023-08-30T15:25:07;29.50;1.00
21259;DHT22;10787;53.364;-1.480;2023-08-30T15:27:51;29.80;1.00
21259;DHT22;10787;53.364;-1.480;2023-08-30T15:30:35;30.40;1.00
21259;DHT22;10787;53.364;-1.480;2023-08-30T15:33:20;30.80;1.00
21259;DHT22;10787;53.364;-1.480;2023-08-30T15:36:05;31.40;1.00
21259;DHT22;10787;53.364;-1.480;2023-08-30T15:38:49;30.10;1.00
21259;DHT22;10787;53.364;-1.480;2023-08-30T15:41:34;29.40;1.00
21259;DHT22;10787;53.364;-1.480;2023-08-30T15:44:18;29.50;1.00
21259;DHT22;10787;53.364;-1.480;2023-08-30T15:47:02;29.60;1.00
21259;DHT22;10787;53.364;-1.480;2023-08-30T15:49:47;29.70;1.00
21259;DHT22;10787;53.364;-1.480;2023-08-30T15:52:31;29.90;1.00
21259;DHT22;10787;53.364;-1.480;2023-08-30T15:55:19;29.60;1.00
21259;DHT22;10787;53.364;-1.480;2023-08-30T15:58:09;30.10;1.00
21259;DHT22;10787;53.364;-1.480;2023-08-30T16:00:54;29.60;1.00
21259;DHT22;10787;53.364;-1.480;2023-08-30T16:03:41;30.10;1.00
21259;DHT22;10787;53.364;-1.480;2023-08-30T16:06:26;29.70;1.00
21259;DHT22;10787;53.364;-1.480;2023-08-30T16:09:12;30.10;1.00
21259;DHT22;10787;53.364;-1.480;2023-08-30T16:11:56;30.00;1.00
21259;DHT22;10787;53.364;-1.480;2023-08-30T16:14:53;30.10;1.00
21259;DHT22;10787;53.364;-1.480;2023-08-30T16:17:38;30.00;1.00
21259;DHT22;10787;53.364;-1.480;2023-08-30T16:20:30;30.50;1.00
21259;DHT22;10787;53.364;-1.480;2023-08-30T16:23:20;30.00;1.00
21259;DHT22;10787;53.364;-1.480;2023-08-30T16:26:05;30.30;1.00
21259;DHT22;10787;53.364;-1.480;2023-08-30T16:28:52;29.80;1.00
21259;DHT22;10787;53.364;-1.480;2023-08-30T16:31:36;29.50;1.00
21259;DHT22;10787;53.364;-1.480;2023-08-30T16:34:22;28.80;1.00
21259;DHT22;10787;53.364;-1.480;2023-08-30T16:37:07;28.60;1.00
21259;DHT22;10787;53.364;-1.480;2023-08-30T16:39:51;28.20;1.00
21259;DHT22;10787;53.364;-1.480;2023-08-30T16:42:37;28.20;1.00
21259;DHT22;10787;53.364;-1.480;2023-08-30T16:45:24;28.50;1.00
21259;DHT22;10787;53.364;-1.480;2023-08-30T16:48:12;29.20;1.00
21259;DHT22;10787;53.364;-1.480;2023-08-30T16:50:59;28.70;1.00
21259;DHT22;10787;53.364;-1.480;2023-08-30T16:53:44;28.40;1.00
21259;DHT22;10787;53.364;-1.480;2023-08-30T16:56:28;28.40;1.00
21259;DHT22;10787;53.364;-1.480;2023-08-30T16:59:12;27.40;1.00
21259;DHT22;10787;53.364;-1.480;2023-08-30T17:01:56;27.00;1.00
21259;DHT22;10787;53.364;-1.480;2023-08-30T17:04:42;26.60;1.00
21259;DHT22;10787;53.364;-1.480;2023-08-30T17:07:26;25.40;1.00
21259;DHT22;10787;53.364;-1.480;2023-08-30T17:10:10;24.50;1.00
21259;DHT22;10787;53.364;-1.480;2023-08-30T17:13:00;23.70;1.00
21259;DHT22;10787;53.364;-1.480;2023-08-30T17:15:46;22.80;1.00
21259;DHT22;10787;53.364;-1.480;2023-08-30T17:18:30;22.40;1.00
21259;DHT22;10787;53.364;-1.480;2023-08-30T17:21:15;22.00;1.00
21259;DHT22;10787;53.364;-1.480;2023-08-30T17:23:59;21.60;1.00
21259;DHT22;10787;53.364;-1.480;2023-08-30T17:26:43;21.60;1.00